Flight Track Log - Related Links

Times and Time Zones

All times are in EDT time to prevent confusion due to time zone crossing. See the N488VC flight status page for this flight to view local times or setup timezone preferences in your user account.

Time Position Orientation Groundspeed Altitude Reporting Facility
EDT Latitude Longitude Course Direction KTS MPH feet Rate Location/Type
Fri 06:53:32 AM 40.7836 -81.3619 132° Southeast 235 270 8,800  Level Cleveland Center
Fri 06:54:32 AM 40.7383 -81.2956 132° Southeast 230 265 11,700 2,650 Climbing Cleveland Center
Fri 06:55:32 AM 40.6908 -81.2156 128° Southeast 261 300 14,100 2,200 Climbing Cleveland Center
Fri 06:56:32 AM 40.6369 -81.1331 131° Southeast 288 331 16,100 1,300 Climbing Cleveland Center
Fri 06:57:32 AM 40.5833 -81.0425 128° Southeast 319 367 16,700 1,450 Climbing Cleveland Center
Fri 06:58:32 AM 40.5189 -80.9436 131° Southeast 340 391 19,000 2,150 Climbing Cleveland Center
Fri 06:59:32 AM 40.4525 -80.8394 130° Southeast 359 413 21,000 1,950 Climbing Cleveland Center
Fri 07:00:32 AM 40.3903 -80.7411 130° Southeast 364 419 22,900 1,900 Climbing Cleveland Center
Fri 07:01:32 AM 40.3361 -80.6567 130° Southeast 333 383 24,800 2,033 Climbing Cleveland Center
Fri 07:02:33 AM 40.2756 -80.5642 131° Southeast 307 353 27,000 1,900 Climbing Cleveland Center
Fri 07:03:32 AM 40.2067 -80.5042 146° Southeast 302 348 28,600 1,462 Climbing Cleveland Center
Fri 07:04:32 AM 40.1233 -80.4717 163° South 302 348 29,900 700 Climbing Cleveland Center
Fri 07:05:32 AM 40.0317 -80.4339 162° South 325 374 30,000 100 Climbing Cleveland Center
Fri 07:06:32 AM 39.9314 -80.3936 163° South 354 407 30,100 550 Climbing Cleveland Center
Fri 07:07:32 AM 39.8314 -80.3478 161° South 370 426 31,100 1,100 Climbing Cleveland Center
Fri 07:08:32 AM 39.7375 -80.2889 154° Southeast 375 432 32,300 1,300 Climbing Cleveland Center
Fri 07:09:32 AM 39.6703 -80.1758 128° Southeast 380 437 33,700 1,350 Climbing Cleveland Center
Fri 07:10:32 AM 39.6219 -80.0442 115° Southeast 388 447 35,000 650 Climbing Cleveland Center
Fri 07:11:32 AM 39.5711 -79.9072 116° Southeast 393 452 35,000  Level Cleveland Center
Fri 07:12:32 AM 39.5203 -79.7678 115° Southeast 410 472 35,000  Level Cleveland Center
Fri 07:13:36 AM 39.4708 -79.6322 115° Southeast 418 481 35,000  Level Washington Center
Fri 07:14:36 AM 39.4172 -79.4897 116° Southeast 418 481 35,000  Level Washington Center
Fri 07:15:36 AM 39.3633 -79.3497 116° Southeast 423 487 35,000  Level Washington Center
Fri 07:16:36 AM 39.2994 -79.1936 118° Southeast 440 506 35,000  Level Washington Center
Fri 07:17:36 AM 39.2450 -79.0569 117° Southeast 440 506 35,000 350 Level Washington Center
Fri 07:18:36 AM 39.1625 -78.9539 136° Southeast 416 479 35,700 850 Climbing Washington Center
Fri 07:19:36 AM 39.0686 -78.8800 149° Southeast 402 463 36,700 650 Climbing Washington Center
Fri 07:20:36 AM 38.9744 -78.8144 152° Southeast 396 456 37,000 150 Climbing Washington Center
Fri 07:21:36 AM 38.8761 -78.7461 152° Southeast 396 456 37,000  Level Washington Center
Fri 07:22:36 AM 38.7781 -78.6781 152° Southeast 401 461 37,000  Level Washington Center
Fri 07:23:36 AM 38.6817 -78.6128 152° Southeast 401 461 37,000  Level Washington Center
Fri 07:24:36 AM 38.5831 -78.5450 152° Southeast 401 461 37,000  Level Washington Center
Fri 07:25:36 AM 38.4847 -78.4775 152° Southeast 401 461 37,000  Level Washington Center
Fri 07:26:36 AM 38.3861 -78.4100 152° Southeast 401 461 37,000  Level Washington Center
Fri 07:27:36 AM 38.2897 -78.3431 151° Southeast 407 468 37,000  Level Washington Center
Fri 07:28:36 AM 38.1994 -78.2814 152° Southeast 407 468 37,000  Level Washington Center
Fri 07:29:36 AM 38.1008 -78.2147 152° Southeast 407 468 37,000  Level Washington Center
Fri 07:30:36 AM 38.0086 -78.1375 147° Southeast 407 468 37,000  Level Washington Center
Fri 07:31:36 AM 37.9194 -78.0083 131° Southeast 423 487 37,000  Level Washington Center
Fri 07:32:36 AM 37.8425 -77.8928 130° Southeast 428 493 37,000 -50 Level Washington Center
Fri 07:33:36 AM 37.7569 -77.7878 136° Southeast 429 494 36,900 -850 Descending Washington Center
Fri 07:34:36 AM 37.6711 -77.6933 139° Southeast 429 494 35,300 -1,700 Descending Washington Center
Fri 07:35:36 AM 37.5850 -77.5967 138° Southeast 417 480 33,500 -1,800 Descending Washington Center
Fri 07:36:36 AM 37.4947 -77.5000 140° Southeast 417 480 31,700 -1,800 Descending Washington Center
Fri 07:37:36 AM 37.4086 -77.4064 139° Southeast 417 480 29,900 -1,850 Descending Washington Center
Fri 07:38:36 AM 37.3225 -77.3128 139° Southeast 422 486 28,000 -1,950 Descending Washington Center
Fri 07:39:36 AM 37.2342 -77.2144 138° Southeast 422 486 26,000 -2,250 Descending Washington Center
Fri 07:40:36 AM 37.1539 -77.1319 141° Southeast 422 486 23,500 -2,518 Descending Washington Center
Fri 07:41:28 AM 37.0714 -77.0444 140° Southeast 399 459 21,300 -2,218 Descending Washington Center
Fri 07:42:35 AM 36.9850 -76.9517 139° Southeast 382 440 19,100 -1,078 Descending Washington Center
Fri 07:43:36 AM 36.9025 -76.8619 139° Southeast 369 425 19,000 -50 Descending Washington Center
Fri 07:44:36 AM 36.8242 -76.7803 140° Southeast 379 436 19,000  Level Washington Center
Fri 07:45:36 AM 36.7436 -76.6908 138° Southeast 398 458 19,000 -250 Level Washington Center
Fri 07:46:36 AM 36.6692 -76.6097 139° Southeast 393 452 18,500 -1,300 Descending Washington Center
Fri 07:47:36 AM 36.5906 -76.5283 140° Southeast 380 437 16,400 -2,000 Descending Washington Center
Fri 07:48:36 AM 36.5139 -76.4472 140° Southeast 375 432 14,500 -1,900 Descending Washington Center
Fri 07:49:36 AM 36.4456 -76.3717 138° Southeast 356 410 12,600 -1,800 Descending Washington Center
Fri 07:50:36 AM 36.3792 -76.3042 141° Southeast 328 377 10,900 -1,750 Descending Washington Center
Fri 07:51:36 AM 36.3169 -76.2417 141° Southeast 305 351 9,100 -1,700 Descending Washington Center
Fri 07:52:36 AM 36.2631 -76.1794 137° Southeast 287 330 7,500 -1,550 Descending Washington Center
Fri 07:53:36 AM 36.2197 -76.0992 124° Southeast 268 308 6,000 -1,300 Descending Washington Center
Fri 07:54:36 AM 36.1803 -76.0192 121° Southeast 268 308 4,900 -550 Descending Washington Center
Fri 07:55:36 AM 36.1408 -75.9367 121° Southeast 273 314 4,900 -250 Level Washington Center
Fri 07:56:36 AM 36.1014 -75.8567 121° Southeast 273 314 4,400 -1,000 Descending Washington Center
Fri 07:57:36 AM 36.0661 -75.7847 121° Southeast 268 308 2,900 -950 Descending Washington Center
Fri 07:58:36 AM 36.0267 -75.7281 131° Southeast 246 283 2,500 -500 Descending Washington Center
Fri 07:59:36 AM 35.9869 -75.6897 142° Southeast 208 239 1,900 -550 Descending Washington Center
Fri 08:00:36 AM 35.9472 -75.6253 127° Southeast 196 226 1,400 300 Descending Washington Center
Fri 08:01:36 AM 35.9119 -75.5742 130° Southeast 196 226 2,500 550 Climbing Washington Center
Fri 08:02:36 AM 35.8742 -75.5228 132° Southeast 196 226 2,500  Level Washington Center
Fri 08:03:36 AM 35.8597 -75.5022 131° Southeast 196 226 2,500  Level Washington Center

Login

Don't have an account? Register now (free) for customized features, flight alerts, and more!